Terminal Aerodrome Forecast
Issued by NWS Greer, SC

Home | Current Version | Previous Version | Text Only | Print | Product List | Glossary On
Versions: 1 2 3 4 5 6 7 8 9 10 11 12 13 14 15 16 17 18 19
000
FTUS42 KGSP 192327
TAFAVL
TAF
KAVL 192327Z 2000/2024 15005KT P6SM VCSH OVC035
     FM200500 15005KT 6SM -SHRA BR OVC020
     FM200800 14005KT 3SM -SHRA BR OVC007
     FM201000 13005KT 2SM SHRA BR OVC003
     FM201300 14005KT 3SM -SHRA BR OVC006
     FM201600 19004KT P6SM BKN035=

USA.gov is the U.S. government's official web portal to all federal, state and local government web resources and services.